createdAt,value
2023-01-22T00:01:12.746Z,16.40
2023-01-22T00:03:40.816Z,17.10
2023-01-22T00:06:09.195Z,17.13
2023-01-22T00:08:36.993Z,17.80
2023-01-22T00:11:04.903Z,17.20
2023-01-22T00:13:32.469Z,17.47
2023-01-22T00:16:00.350Z,16.40
2023-01-22T00:18:27.928Z,17.40
2023-01-22T00:20:55.561Z,17.37
2023-01-22T00:23:23.826Z,17.67
2023-01-22T00:26:00.975Z,17.43
2023-01-22T00:28:28.792Z,18.83
2023-01-22T00:31:00.944Z,18.57
2023-01-22T00:33:28.725Z,18.47
2023-01-22T00:35:56.572Z,18.30
2023-01-22T00:38:23.792Z,17.97
2023-01-22T00:40:50.980Z,17.93
2023-01-22T00:43:18.133Z,18.03
2023-01-22T00:45:45.372Z,18.33
2023-01-22T00:48:12.543Z,17.77
2023-01-22T00:50:39.807Z,17.43
2023-01-22T00:53:07.113Z,18.07
2023-01-22T00:55:34.389Z,18.23
2023-01-22T00:58:01.574Z,18.13
2023-01-22T01:00:28.844Z,18.30
2023-01-22T01:03:14.631Z,18.10
2023-01-22T01:05:41.838Z,17.53
2023-01-22T01:08:09.000Z,18.67
2023-01-22T01:10:36.261Z,18.73
2023-01-22T01:13:04.304Z,19.27
2023-01-22T01:15:31.561Z,18.53
2023-01-22T01:17:58.730Z,19.10
2023-01-22T01:20:26.071Z,18.70
2023-01-22T01:22:53.238Z,17.43
2023-01-22T01:25:20.412Z,17.97
2023-01-22T01:27:47.595Z,17.17
2023-01-22T01:30:15.697Z,18.20
2023-01-22T01:32:43.319Z,17.47
2023-01-22T01:35:10.569Z,18.10
2023-01-22T01:37:39.719Z,18.23
2023-01-22T01:40:07.765Z,18.00
2023-01-22T01:42:39.127Z,19.10
2023-01-22T01:45:24.434Z,18.23
2023-01-22T01:48:14.050Z,19.13
2023-01-22T01:50:44.747Z,18.73
2023-01-22T01:53:12.044Z,19.50
2023-01-22T01:55:40.339Z,19.07
2023-01-22T01:58:11.776Z,19.73
2023-01-22T02:00:40.749Z,18.67
2023-01-22T02:03:07.977Z,20.43
2023-01-22T02:05:38.928Z,19.97
2023-01-22T02:08:09.063Z,18.30
2023-01-22T02:10:37.327Z,19.83
2023-01-22T02:13:09.790Z,19.60
2023-01-22T02:15:38.515Z,17.93
2023-01-22T02:18:05.759Z,18.53
2023-01-22T02:20:40.644Z,18.83
2023-01-22T02:23:09.480Z,19.23
2023-01-22T02:25:36.728Z,19.10
2023-01-22T02:28:04.036Z,19.57
2023-01-22T02:30:31.307Z,19.17
2023-01-22T02:33:00.025Z,19.90
2023-01-22T02:35:27.205Z,20.40
2023-01-22T02:37:54.392Z,19.80
2023-01-22T02:40:22.336Z,20.57
2023-01-22T02:42:49.954Z,19.87
2023-01-22T02:45:17.320Z,20.83
2023-01-22T02:47:44.536Z,20.70
2023-01-22T02:50:12.152Z,20.40
2023-01-22T02:52:40.144Z,20.53
2023-01-22T02:55:07.881Z,19.87
2023-01-22T02:57:35.047Z,19.70
2023-01-22T03:00:02.289Z,19.83
2023-01-22T03:02:30.866Z,19.63
2023-01-22T03:05:03.226Z,20.07
2023-01-22T03:07:42.138Z,20.40
2023-01-22T03:10:15.821Z,19.43
2023-01-22T03:13:02.617Z,19.27
2023-01-22T03:15:48.986Z,18.60
2023-01-22T03:18:35.370Z,19.77
2023-01-22T03:21:18.685Z,18.00
2023-01-22T03:23:54.227Z,18.03
2023-01-22T03:26:23.443Z,18.23
2023-01-22T03:28:51.721Z,17.87
2023-01-22T03:31:19.469Z,17.53
2023-01-22T03:33:46.852Z,18.20
2023-01-22T03:36:15.355Z,18.77
2023-01-22T03:38:50.174Z,18.13
2023-01-22T03:41:20.657Z,18.70
2023-01-22T03:43:49.512Z,18.17
2023-01-22T03:46:21.052Z,18.57
2023-01-22T03:48:55.510Z,18.37
2023-01-22T03:51:23.654Z,19.63
2023-01-22T03:53:51.047Z,19.03
2023-01-22T03:56:21.430Z,20.03
2023-01-22T03:58:49.877Z,19.43
2023-01-22T04:01:22.168Z,19.00
2023-01-22T04:03:50.808Z,19.23
2023-01-22T04:06:19.505Z,20.23
2023-01-22T04:08:50.002Z,19.97
2023-01-22T04:11:18.582Z,21.10
2023-01-22T04:13:46.098Z,21.70
2023-01-22T04:16:16.081Z,21.07
2023-01-22T04:19:01.677Z,20.23
2023-01-22T04:21:49.028Z,21.43
2023-01-22T04:24:16.581Z,24.50
2023-01-22T04:26:43.780Z,23.77
2023-01-22T04:29:12.925Z,22.17
2023-01-22T04:31:40.495Z,22.27
2023-01-22T04:34:07.664Z,21.63
2023-01-22T04:36:41.851Z,21.20
2023-01-22T04:39:09.109Z,21.07
2023-01-22T04:41:36.304Z,20.20
2023-01-22T04:44:03.511Z,19.33
2023-01-22T04:46:33.399Z,19.60
2023-01-22T04:49:00.619Z,21.17
2023-01-22T04:51:27.959Z,20.27
2023-01-22T04:53:55.408Z,21.03
2023-01-22T04:56:23.286Z,21.43
2023-01-22T04:58:50.575Z,22.33
2023-01-22T05:01:17.832Z,22.20
2023-01-22T05:03:45.626Z,22.20
2023-01-22T05:06:12.857Z,21.93
2023-01-22T05:08:40.230Z,22.97
2023-01-22T05:11:09.143Z,20.93
2023-01-22T05:13:56.523Z,21.07
2023-01-22T05:16:23.855Z,22.10
2023-01-22T05:18:51.124Z,20.90
2023-01-22T05:21:18.344Z,21.00
2023-01-22T05:23:46.728Z,22.33
2023-01-22T05:26:14.011Z,24.00
2023-01-22T05:28:53.521Z,22.00
2023-01-22T05:31:39.529Z,23.40
2023-01-22T05:34:11.656Z,22.80
2023-01-22T05:36:39.225Z,22.07
2023-01-22T05:39:14.516Z,21.90
2023-01-22T05:41:42.072Z,21.13
2023-01-22T05:44:11.915Z,21.50
2023-01-22T05:46:41.114Z,21.20
2023-01-22T05:49:21.535Z,22.20
2023-01-22T05:51:50.499Z,21.60
2023-01-22T05:54:18.347Z,20.07
2023-01-22T05:56:47.255Z,20.70
2023-01-22T05:59:14.637Z,21.03
2023-01-22T06:01:45.455Z,18.70
2023-01-22T06:04:12.970Z,20.60
2023-01-22T06:06:40.220Z,18.80
2023-01-22T06:09:07.718Z,19.50
2023-01-22T06:11:37.785Z,16.87
2023-01-22T06:14:05.182Z,21.43
2023-01-22T06:16:34.057Z,19.00
2023-01-22T06:19:25.547Z,21.13
2023-01-22T06:21:55.532Z,22.03
2023-01-22T06:24:32.208Z,21.97
2023-01-22T06:27:00.801Z,20.00
2023-01-22T06:29:40.062Z,23.20
2023-01-22T06:32:07.777Z,21.37
2023-01-22T06:34:35.129Z,19.50
2023-01-22T06:37:04.943Z,18.47
2023-01-22T06:39:34.904Z,18.03
2023-01-22T06:42:09.330Z,19.40
2023-01-22T06:44:36.520Z,19.70
2023-01-22T06:47:03.783Z,19.53
2023-01-22T06:49:31.835Z,20.20
2023-01-22T06:51:59.029Z,21.03
2023-01-22T06:54:26.243Z,19.30
2023-01-22T06:56:53.914Z,18.63
2023-01-22T06:59:23.412Z,20.30
2023-01-22T07:01:50.666Z,20.77
2023-01-22T07:04:17.868Z,20.60
2023-01-22T07:06:45.056Z,20.43
2023-01-22T07:09:12.223Z,19.13
2023-01-22T07:11:39.403Z,17.70
2023-01-22T07:14:06.544Z,19.80
2023-01-22T07:16:33.802Z,19.07
2023-01-22T07:19:01.107Z,20.20
2023-01-22T07:21:28.312Z,18.53
2023-01-22T07:23:55.454Z,18.97
2023-01-22T07:26:22.656Z,18.57
2023-01-22T07:28:49.956Z,16.97
2023-01-22T07:31:17.141Z,18.67
2023-01-22T07:33:44.315Z,19.93
2023-01-22T07:36:11.468Z,18.83
2023-01-22T07:38:38.672Z,18.77
2023-01-22T07:41:16.959Z,19.43
2023-01-22T07:43:53.093Z,19.30
2023-01-22T07:46:20.397Z,19.73
2023-01-22T07:48:47.617Z,18.87
2023-01-22T07:51:14.990Z,19.30
2023-01-22T07:53:42.730Z,19.13
2023-01-22T07:56:09.937Z,19.30
2023-01-22T07:58:37.115Z,20.13
2023-01-22T08:01:08.006Z,20.77
2023-01-22T08:03:37.661Z,17.83
2023-01-22T08:06:15.187Z,19.90
2023-01-22T08:08:42.636Z,20.90
2023-01-22T08:11:09.861Z,21.27
2023-01-22T08:13:37.027Z,20.67
2023-01-22T08:16:04.566Z,19.83
2023-01-22T08:18:31.825Z,22.43
2023-01-22T08:21:02.742Z,23.10
2023-01-22T08:23:29.950Z,43.97
2023-01-22T08:26:01.287Z,50.03
2023-01-22T08:28:28.563Z,28.10
2023-01-22T08:31:00.713Z,23.37
2023-01-22T08:33:29.036Z,23.27
2023-01-22T08:35:56.320Z,25.73
2023-01-22T08:38:23.604Z,23.67
2023-01-22T08:40:52.488Z,21.70
2023-01-22T08:43:19.952Z,21.20
2023-01-22T08:45:50.457Z,20.43
2023-01-22T08:48:18.232Z,19.93
2023-01-22T08:50:45.414Z,18.97
2023-01-22T08:53:12.636Z,22.13
2023-01-22T08:55:39.849Z,22.13
2023-01-22T08:58:07.035Z,20.60
2023-01-22T09:00:34.224Z,20.07
2023-01-22T09:03:01.413Z,18.77
2023-01-22T09:05:28.689Z,19.77
2023-01-22T09:07:56.058Z,17.67
2023-01-22T09:10:23.533Z,19.40
2023-01-22T09:12:50.867Z,18.83
2023-01-22T09:15:18.087Z,18.27
2023-01-22T09:17:45.281Z,19.87
2023-01-22T09:20:12.558Z,22.53
2023-01-22T09:22:39.714Z,20.90
2023-01-22T09:25:07.225Z,31.90
2023-01-22T09:27:34.426Z,20.90
2023-01-22T09:30:01.742Z,38.60
2023-01-22T09:32:29.214Z,41.93
2023-01-22T09:34:56.380Z,64.47
2023-01-22T09:37:25.122Z,74.63
2023-01-22T09:39:52.705Z,155.53
2023-01-22T09:42:32.309Z,22.33
2023-01-22T09:45:09.837Z,21.07
2023-01-22T09:47:42.771Z,28.67
2023-01-22T09:50:36.961Z,22.33
2023-01-22T09:53:07.527Z,46.00
2023-01-22T09:55:43.671Z,21.57
2023-01-22T09:58:17.763Z,38.67
2023-01-22T10:00:51.693Z,25.43
2023-01-22T10:03:28.501Z,21.53
2023-01-22T10:06:00.171Z,20.20
2023-01-22T10:08:39.369Z,22.50
2023-01-22T10:11:10.073Z,23.30
2023-01-22T10:13:38.890Z,48.70
2023-01-22T10:16:06.950Z,22.60
2023-01-22T10:18:46.331Z,21.23
2023-01-22T10:21:31.545Z,18.77
2023-01-22T10:23:59.361Z,20.37
2023-01-22T10:26:35.127Z,19.60
2023-01-22T10:29:08.713Z,42.10
2023-01-22T10:31:42.159Z,18.53
2023-01-22T10:34:20.484Z,17.87
2023-01-22T10:37:00.501Z,18.23
2023-01-22T10:39:27.827Z,18.43
2023-01-22T10:42:01.790Z,19.60
2023-01-22T10:44:28.985Z,17.23
2023-01-22T10:47:08.303Z,20.60
2023-01-22T10:49:35.555Z,60.53
2023-01-22T10:52:18.778Z,18.70
2023-01-22T10:54:53.727Z,22.30
2023-01-22T10:57:33.428Z,28.23
2023-01-22T11:00:16.415Z,16.33
2023-01-22T11:02:46.470Z,13.87
2023-01-22T11:05:21.011Z,19.63
2023-01-22T11:08:09.751Z,13.97
2023-01-22T11:10:45.343Z,14.67
2023-01-22T11:13:25.774Z,13.87
2023-01-22T11:16:05.074Z,12.73
2023-01-22T11:18:45.588Z,13.83
2023-01-22T11:21:41.065Z,14.73
2023-01-22T11:24:11.227Z,14.00
2023-01-22T11:26:41.249Z,12.17
2023-01-22T11:29:28.442Z,12.67
2023-01-22T11:32:22.075Z,15.30
2023-01-22T11:35:14.226Z,13.87
2023-01-22T11:38:03.626Z,11.80
2023-01-22T11:40:36.002Z,11.07
2023-01-22T11:43:13.165Z,12.40
2023-01-22T11:46:04.862Z,13.33
2023-01-22T11:48:41.100Z,11.20
2023-01-22T11:51:17.206Z,11.93
2023-01-22T11:54:03.940Z,14.10
2023-01-22T11:56:43.616Z,16.47
2023-01-22T11:59:40.014Z,15.07
2023-01-22T12:02:46.743Z,13.23
2023-01-22T12:05:56.165Z,13.80
2023-01-22T12:08:31.102Z,14.67
2023-01-22T12:11:10.103Z,14.63
2023-01-22T12:13:54.903Z,13.97
2023-01-22T12:16:24.666Z,14.00
2023-01-22T12:19:32.457Z,14.17
2023-01-22T12:22:05.593Z,17.10
2023-01-22T12:24:40.681Z,15.37
2023-01-22T12:27:35.633Z,14.50
2023-01-22T12:30:13.384Z,14.03
2023-01-22T12:32:45.195Z,13.50
2023-01-22T12:35:20.826Z,14.60
2023-01-22T12:38:17.047Z,12.67
2023-01-22T12:41:26.150Z,12.80
2023-01-22T12:43:59.921Z,13.70
2023-01-22T12:46:39.117Z,13.80
2023-01-22T12:49:08.725Z,14.43
2023-01-22T12:51:41.920Z,14.17
2023-01-22T12:54:30.093Z,12.53
2023-01-22T12:57:14.489Z,13.03
2023-01-22T12:59:51.581Z,14.47
2023-01-22T13:02:35.378Z,13.43
2023-01-22T13:05:28.716Z,13.70
2023-01-22T13:08:34.102Z,13.30
2023-01-22T13:11:05.535Z,13.43
2023-01-22T13:13:34.386Z,12.83
2023-01-22T13:16:26.475Z,14.37
2023-01-22T13:18:56.060Z,12.93
2023-01-22T13:21:29.830Z,12.07
2023-01-22T13:24:16.281Z,11.97
2023-01-22T13:26:51.902Z,12.77
2023-01-22T13:29:28.843Z,11.33
2023-01-22T13:31:58.907Z,11.47
2023-01-22T13:34:27.108Z,11.43
2023-01-22T13:36:55.487Z,10.80
2023-01-22T13:39:33.717Z,12.20
2023-01-22T13:42:05.057Z,15.20
2023-01-22T13:44:35.818Z,12.60
2023-01-22T13:47:03.783Z,13.67
2023-01-22T13:49:34.274Z,31.63
2023-01-22T13:52:07.800Z,15.73
2023-01-22T13:54:44.271Z,14.90
2023-01-22T13:57:21.846Z,21.97
2023-01-22T14:00:00.317Z,15.63
2023-01-22T14:02:30.016Z,16.33
2023-01-22T14:04:58.046Z,14.47
2023-01-22T14:07:35.596Z,15.13
2023-01-22T14:10:19.455Z,16.03
2023-01-22T14:12:57.633Z,16.60
2023-01-22T14:15:24.816Z,17.63
2023-01-22T14:17:52.069Z,14.13
2023-01-22T14:20:19.692Z,13.23
2023-01-22T14:22:47.649Z,13.90
2023-01-22T14:25:14.865Z,14.73
2023-01-22T14:27:47.814Z,14.17
2023-01-22T14:30:17.933Z,20.93
2023-01-22T14:32:45.962Z,12.73
2023-01-22T14:35:17.465Z,15.67
2023-01-22T14:37:45.260Z,17.17
2023-01-22T14:40:14.627Z,15.17
2023-01-22T14:42:41.841Z,14.80
2023-01-22T14:45:10.124Z,16.63
2023-01-22T14:47:37.393Z,16.93
2023-01-22T14:50:05.604Z,15.77
2023-01-22T14:52:33.006Z,15.90
2023-01-22T14:55:00.310Z,17.23
2023-01-22T14:57:27.482Z,16.43
2023-01-22T14:59:54.677Z,17.03
2023-01-22T15:02:21.902Z,17.97
2023-01-22T15:04:49.175Z,18.23
2023-01-22T15:07:16.503Z,17.63
2023-01-22T15:09:43.877Z,21.03
2023-01-22T15:12:11.155Z,19.67
2023-01-22T15:14:38.341Z,17.23
2023-01-22T15:17:05.476Z,18.77
2023-01-22T15:19:41.032Z,19.00
2023-01-22T15:22:08.855Z,18.63
2023-01-22T15:24:36.056Z,17.50
2023-01-22T15:27:03.301Z,16.33
2023-01-22T15:29:31.220Z,18.20
2023-01-22T15:31:58.384Z,15.67
2023-01-22T15:34:25.603Z,17.50
2023-01-22T15:36:52.830Z,17.80
2023-01-22T15:39:20.052Z,18.27
2023-01-22T15:41:47.277Z,19.30
2023-01-22T15:44:14.684Z,17.70
2023-01-22T15:46:42.732Z,17.80
2023-01-22T15:49:12.078Z,18.33
2023-01-22T15:51:40.772Z,16.43
2023-01-22T15:54:12.992Z,19.30
2023-01-22T15:56:40.294Z,21.17
2023-01-22T15:59:07.614Z,18.33
2023-01-22T16:01:34.841Z,17.43
2023-01-22T16:04:02.998Z,19.07
2023-01-22T16:06:32.575Z,18.40
2023-01-22T16:09:01.001Z,17.40
2023-01-22T16:11:29.369Z,18.67
2023-01-22T16:13:57.924Z,20.40
2023-01-22T16:16:31.206Z,20.03
2023-01-22T16:19:00.800Z,19.13
2023-01-22T16:21:28.147Z,19.23
2023-01-22T16:23:57.690Z,20.00
2023-01-22T16:26:27.435Z,21.87
2023-01-22T16:28:56.033Z,25.47
2023-01-22T16:31:26.564Z,20.73
2023-01-22T16:34:06.392Z,19.00
2023-01-22T16:36:33.786Z,21.63
2023-01-22T16:39:01.256Z,19.83
2023-01-22T16:41:30.566Z,19.83
2023-01-22T16:44:12.248Z,19.33
2023-01-22T16:46:42.382Z,19.10
2023-01-22T16:49:18.672Z,20.00
2023-01-22T16:51:48.959Z,19.33
2023-01-22T16:54:24.289Z,20.30
2023-01-22T16:56:51.522Z,22.50
2023-01-22T16:59:18.772Z,21.60
2023-01-22T17:01:46.547Z,25.97
2023-01-22T17:04:13.987Z,25.57
2023-01-22T17:06:42.804Z,26.27
2023-01-22T17:09:16.798Z,21.97
2023-01-22T17:11:46.222Z,22.03
2023-01-22T17:14:14.597Z,23.50
2023-01-22T17:16:41.746Z,26.30
2023-01-22T17:19:09.016Z,27.23
2023-01-22T17:21:36.393Z,25.77
2023-01-22T17:24:04.880Z,23.97
2023-01-22T17:26:32.081Z,24.67
2023-01-22T17:28:59.450Z,26.20
2023-01-22T17:31:27.017Z,24.27
2023-01-22T17:33:58.823Z,21.93
2023-01-22T17:36:28.199Z,22.63
2023-01-22T17:38:56.682Z,24.60
2023-01-22T17:41:25.438Z,22.53
2023-01-22T17:43:55.156Z,21.87
2023-01-22T17:46:31.806Z,22.50
2023-01-22T17:49:00.981Z,29.47
2023-01-22T17:51:29.191Z,31.57
2023-01-22T17:53:59.144Z,33.60
2023-01-22T17:56:28.682Z,26.37
2023-01-22T17:58:58.178Z,24.97
2023-01-22T18:01:28.588Z,25.67
2023-01-22T18:03:57.609Z,26.60
2023-01-22T18:06:25.241Z,26.40
2023-01-22T18:08:52.664Z,26.20
2023-01-22T18:11:23.895Z,26.87
2023-01-22T18:13:51.190Z,26.37
2023-01-22T18:16:19.368Z,26.50
2023-01-22T18:18:46.802Z,25.33
2023-01-22T18:21:16.977Z,26.47
2023-01-22T18:23:44.579Z,25.83
2023-01-22T18:26:13.195Z,26.53
2023-01-22T18:28:40.899Z,26.87
2023-01-22T18:31:13.052Z,28.13
2023-01-22T18:33:41.298Z,28.37
2023-01-22T18:36:12.284Z,27.13
2023-01-22T18:38:40.843Z,25.00
2023-01-22T18:41:19.672Z,25.70
2023-01-22T18:43:49.063Z,25.10
2023-01-22T18:46:17.029Z,23.93
2023-01-22T18:48:44.694Z,27.17
2023-01-22T18:51:15.574Z,25.17
2023-01-22T18:53:42.936Z,28.70
2023-01-22T18:56:11.861Z,33.73
2023-01-22T18:58:42.201Z,35.93
2023-01-22T19:01:19.633Z,33.60
2023-01-22T19:03:50.473Z,33.60
2023-01-22T19:06:22.608Z,31.27
2023-01-22T19:08:55.638Z,29.87
2023-01-22T19:11:23.672Z,28.73
2023-01-22T19:13:55.515Z,29.40
2023-01-22T19:16:24.147Z,34.17
2023-01-22T19:18:59.605Z,34.23
2023-01-22T19:21:27.254Z,34.17
2023-01-22T19:23:58.227Z,33.27
2023-01-22T19:26:34.031Z,32.30
2023-01-22T19:29:07.469Z,32.77
2023-01-22T19:31:37.054Z,33.07
2023-01-22T19:34:05.532Z,35.03
2023-01-22T19:36:34.841Z,34.70
2023-01-22T19:39:05.008Z,34.67
2023-01-22T19:41:32.807Z,33.87
2023-01-22T19:44:01.509Z,34.53
2023-01-22T19:46:29.387Z,34.30
2023-01-22T19:48:56.779Z,33.33
2023-01-22T19:51:26.708Z,31.17
2023-01-22T19:53:54.799Z,35.67
2023-01-22T19:56:27.841Z,34.00
2023-01-22T19:58:59.923Z,34.80
2023-01-22T20:01:30.275Z,33.67
2023-01-22T20:03:57.599Z,31.47
2023-01-22T20:06:25.356Z,30.90
2023-01-22T20:08:54.429Z,29.57
2023-01-22T20:11:21.720Z,36.33
2023-01-22T20:13:49.211Z,36.07
2023-01-22T20:16:22.931Z,36.73
2023-01-22T20:18:51.355Z,39.67
2023-01-22T20:21:19.566Z,37.30
2023-01-22T20:23:48.355Z,41.20
2023-01-22T20:26:17.613Z,38.33
2023-01-22T20:28:45.446Z,42.77
2023-01-22T20:31:16.043Z,37.60
2023-01-22T20:33:43.412Z,32.70
2023-01-22T20:36:15.019Z,33.77
2023-01-22T20:38:45.844Z,40.23
2023-01-22T20:41:14.177Z,42.50
2023-01-22T20:43:43.259Z,48.50
2023-01-22T20:46:19.321Z,48.83
2023-01-22T20:48:47.780Z,49.20
2023-01-22T20:51:17.813Z,47.93
2023-01-22T20:53:45.970Z,49.67
2023-01-22T20:56:15.870Z,46.47
2023-01-22T20:58:43.510Z,47.60
2023-01-22T21:01:16.575Z,45.27
2023-01-22T21:03:44.934Z,44.03
2023-01-22T21:06:14.445Z,49.37
2023-01-22T21:08:42.923Z,50.07
2023-01-22T21:11:12.578Z,45.17
2023-01-22T21:13:40.325Z,42.37
2023-01-22T21:16:13.489Z,41.37
2023-01-22T21:18:43.685Z,42.53
2023-01-22T21:21:18.285Z,40.60
2023-01-22T21:23:48.104Z,41.80
2023-01-22T21:26:18.951Z,40.17
2023-01-22T21:28:48.173Z,43.13
2023-01-22T21:31:18.445Z,42.27
2023-01-22T21:33:46.732Z,39.60
2023-01-22T21:36:16.317Z,40.53
2023-01-22T21:38:45.205Z,38.77
2023-01-22T21:41:15.184Z,38.87
2023-01-22T21:44:03.088Z,40.97
2023-01-22T21:46:36.759Z,44.03
2023-01-22T21:49:17.966Z,40.03
2023-01-22T21:52:00.357Z,39.77
2023-01-22T21:54:33.065Z,50.87
2023-01-22T21:57:00.403Z,62.03
2023-01-22T21:59:27.854Z,57.90
2023-01-22T22:01:55.303Z,51.80
2023-01-22T22:04:24.680Z,54.47
2023-01-22T22:06:53.500Z,47.63
2023-01-22T22:09:23.837Z,42.40
2023-01-22T22:11:51.710Z,58.17
2023-01-22T22:14:22.304Z,51.40
2023-01-22T22:16:49.760Z,48.23
2023-01-22T22:19:18.240Z,47.73
2023-01-22T22:21:45.684Z,47.13
2023-01-22T22:24:13.686Z,49.57
2023-01-22T22:26:41.413Z,45.13
2023-01-22T22:29:09.586Z,45.70
2023-01-22T22:31:37.584Z,52.50
2023-01-22T22:34:05.698Z,47.53
2023-01-22T22:36:33.114Z,43.13
2023-01-22T22:39:01.508Z,40.70
2023-01-22T22:41:30.706Z,36.87
2023-01-22T22:43:58.795Z,34.07
2023-01-22T22:46:32.096Z,36.33
2023-01-22T22:49:00.793Z,34.03
2023-01-22T22:51:31.210Z,34.17
2023-01-22T22:54:01.574Z,34.60
2023-01-22T22:56:31.162Z,32.47
2023-01-22T22:58:59.658Z,33.80
2023-01-22T23:01:28.009Z,32.80
2023-01-22T23:03:55.428Z,32.13
2023-01-22T23:06:26.501Z,32.40
2023-01-22T23:09:10.725Z,30.53
2023-01-22T23:11:39.985Z,31.80
2023-01-22T23:14:08.186Z,31.03
2023-01-22T23:16:40.762Z,30.37
2023-01-22T23:19:13.863Z,26.33
2023-01-22T23:21:41.696Z,25.00
2023-01-22T23:24:11.245Z,33.47
2023-01-22T23:26:39.993Z,32.13
2023-01-22T23:29:09.981Z,27.57
2023-01-22T23:31:39.101Z,25.93
2023-01-22T23:34:10.166Z,26.57
2023-01-22T23:36:40.034Z,25.40
2023-01-22T23:39:08.971Z,24.27
2023-01-22T23:41:36.151Z,24.90
2023-01-22T23:44:03.994Z,25.17
2023-01-22T23:46:31.987Z,25.07
2023-01-22T23:49:00.101Z,24.83
2023-01-22T23:51:27.733Z,23.43
2023-01-22T23:53:54.987Z,24.67
2023-01-22T23:56:24.821Z,25.07
2023-01-22T23:58:55.781Z,25.97
